createdAt,value
2023-04-16T00:01:48.217Z,4.07
2023-04-16T00:04:50.193Z,6.15
2023-04-16T00:07:52.880Z,5.45
2023-04-16T00:10:55.514Z,4.82
2023-04-16T00:13:57.324Z,5.03
2023-04-16T00:16:59.424Z,7.57
2023-04-16T00:20:01.207Z,7.80
2023-04-16T00:23:03.122Z,6.97
2023-04-16T00:26:05.103Z,5.70
2023-04-16T00:29:07.254Z,5.85
2023-04-16T00:32:12.626Z,5.93
2023-04-16T00:35:14.394Z,6.85
2023-04-16T00:38:16.793Z,6.47
2023-04-16T00:41:18.697Z,7.55
2023-04-16T00:44:20.728Z,7.93
2023-04-16T00:47:22.655Z,8.32
2023-04-16T00:50:24.608Z,7.35
2023-04-16T00:53:26.481Z,7.53
2023-04-16T00:56:28.556Z,8.73
2023-04-16T00:59:30.705Z,11.55
2023-04-16T01:02:34.130Z,10.63
2023-04-16T01:05:37.193Z,9.25
2023-04-16T01:08:39.144Z,12.52
2023-04-16T01:11:41.217Z,6.68
2023-04-16T01:14:43.116Z,6.88
2023-04-16T01:17:48.219Z,6.28
2023-04-16T01:20:51.008Z,5.05
2023-04-16T01:23:53.013Z,4.97
2023-04-16T01:26:54.792Z,5.60
2023-04-16T01:29:56.918Z,6.13
2023-04-16T01:33:11.630Z,6.50
2023-04-16T01:36:13.560Z,5.95
2023-04-16T01:39:16.637Z,6.32
2023-04-16T01:42:18.439Z,6.80
2023-04-16T01:45:20.254Z,6.45
2023-04-16T01:48:22.955Z,8.02
2023-04-16T01:51:25.154Z,9.07
2023-04-16T01:54:27.054Z,8.30
2023-04-16T01:57:29.689Z,8.45
2023-04-16T02:00:31.805Z,9.93
2023-04-16T02:03:34.539Z,9.00
2023-04-16T02:06:36.457Z,9.68
2023-04-16T02:09:40.131Z,11.27
2023-04-16T02:12:42.166Z,9.40
2023-04-16T02:15:48.246Z,9.98
2023-04-16T02:18:52.997Z,11.73
2023-04-16T02:21:56.749Z,10.32
2023-04-16T02:24:58.705Z,11.50
2023-04-16T02:28:00.504Z,8.32
2023-04-16T02:31:10.303Z,11.50
2023-04-16T02:34:17.717Z,9.77
2023-04-16T02:37:19.590Z,11.30
2023-04-16T02:40:21.419Z,9.77
2023-04-16T02:43:23.688Z,10.02
2023-04-16T02:46:25.572Z,11.00
2023-04-16T02:49:27.446Z,9.77
2023-04-16T02:52:29.176Z,9.40
2023-04-16T02:55:31.148Z,9.18
2023-04-16T02:58:32.917Z,7.50
2023-04-16T03:01:34.807Z,9.05
2023-04-16T03:04:36.731Z,9.98
2023-04-16T03:07:40.735Z,9.20
2023-04-16T03:10:42.508Z,8.77
2023-04-16T03:13:44.339Z,10.88
2023-04-16T03:16:46.293Z,11.30
2023-04-16T03:19:48.158Z,7.50
2023-04-16T03:22:52.311Z,9.30
2023-04-16T03:25:54.130Z,8.77
2023-04-16T03:28:55.973Z,9.00
2023-04-16T03:31:57.997Z,10.00
2023-04-16T03:35:00.698Z,9.65
2023-04-16T03:38:02.750Z,8.52
2023-04-16T03:41:04.771Z,8.00
2023-04-16T03:44:08.349Z,10.05
2023-04-16T03:47:10.599Z,9.70
2023-04-16T03:50:13.377Z,8.15
2023-04-16T03:53:15.928Z,10.88
2023-04-16T03:56:18.343Z,9.88
2023-04-16T03:59:20.249Z,11.98
2023-04-16T04:02:22.274Z,7.78
2023-04-16T04:05:24.708Z,7.82
2023-04-16T04:08:27.379Z,7.97
2023-04-16T04:11:29.137Z,7.40
2023-04-16T04:14:31.093Z,8.23
2023-04-16T04:17:32.860Z,8.75
2023-04-16T04:20:34.721Z,9.10
2023-04-16T04:23:37.671Z,8.30
2023-04-16T04:26:40.982Z,6.75
2023-04-16T04:29:42.838Z,7.88
2023-04-16T04:32:44.747Z,6.63
2023-04-16T04:35:47.192Z,6.43
2023-04-16T04:38:50.130Z,6.45
2023-04-16T04:41:52.378Z,7.45
2023-04-16T04:44:55.013Z,8.50
2023-04-16T04:47:57.779Z,5.95
2023-04-16T04:51:00.783Z,5.57
2023-04-16T04:54:03.054Z,6.05
2023-04-16T04:57:06.346Z,5.75
2023-04-16T05:00:09.025Z,6.28
2023-04-16T05:03:24.107Z,5.35
2023-04-16T05:06:29.077Z,5.65
2023-04-16T05:09:31.491Z,6.15
2023-04-16T05:12:33.262Z,6.97
2023-04-16T05:15:35.066Z,7.28
2023-04-16T05:18:36.802Z,7.38
2023-04-16T05:21:38.543Z,8.63
2023-04-16T05:24:40.371Z,8.63
2023-04-16T05:27:42.163Z,5.75
2023-04-16T05:30:43.885Z,6.65
2023-04-16T05:33:45.647Z,7.25
2023-04-16T05:36:50.536Z,5.88
2023-04-16T05:39:52.506Z,9.20
2023-04-16T05:42:54.261Z,5.20
2023-04-16T05:45:56.308Z,4.97
2023-04-16T05:49:00.760Z,6.65
2023-04-16T05:52:04.816Z,5.28
2023-04-16T05:55:07.273Z,5.22
2023-04-16T05:58:09.073Z,5.97
2023-04-16T06:01:11.512Z,7.05
2023-04-16T06:04:13.480Z,4.40
2023-04-16T06:07:15.925Z,3.75
2023-04-16T06:10:18.022Z,4.68
2023-04-16T06:13:19.796Z,5.10
2023-04-16T06:16:21.505Z,5.72
2023-04-16T06:19:23.345Z,6.53
2023-04-16T06:22:25.189Z,4.28
2023-04-16T06:25:27.034Z,5.65
2023-04-16T06:28:28.857Z,5.55
2023-04-16T06:31:31.293Z,4.05
2023-04-16T06:34:33.094Z,5.20
2023-04-16T06:37:35.535Z,7.82
2023-04-16T06:40:37.682Z,5.25
2023-04-16T06:43:39.457Z,5.45
2023-04-16T06:46:41.516Z,5.03
2023-04-16T06:49:43.340Z,5.15
2023-04-16T06:52:45.421Z,5.65
2023-04-16T06:55:47.188Z,5.50
2023-04-16T06:58:49.112Z,6.25
2023-04-16T07:01:52.795Z,4.25
2023-04-16T07:04:54.745Z,5.03
2023-04-16T07:07:57.821Z,6.18
2023-04-16T07:10:59.829Z,6.78
2023-04-16T07:14:01.784Z,5.35
2023-04-16T07:17:03.525Z,4.45
2023-04-16T07:20:06.162Z,6.05
2023-04-16T07:23:08.013Z,5.07
2023-04-16T07:26:10.621Z,7.35
2023-04-16T07:29:12.571Z,4.38
2023-04-16T07:32:15.536Z,3.60
2023-04-16T07:35:17.814Z,4.35
2023-04-16T07:38:19.569Z,5.70
2023-04-16T07:41:21.510Z,2.15
2023-04-16T07:44:23.301Z,3.85
2023-04-16T07:47:26.718Z,3.20
2023-04-16T07:50:28.481Z,5.18
2023-04-16T07:53:30.453Z,2.88
2023-04-16T07:56:32.365Z,2.85
2023-04-16T07:59:34.228Z,2.75
2023-04-16T08:02:36.298Z,3.40
2023-04-16T08:05:38.186Z,4.22
2023-04-16T08:08:39.872Z,2.55
2023-04-16T08:11:41.739Z,3.15
2023-04-16T08:14:45.560Z,3.83
2023-04-16T08:17:47.417Z,2.83
2023-04-16T08:20:49.380Z,2.05
2023-04-16T08:23:51.421Z,1.90
2023-04-16T08:26:53.204Z,2.20
2023-04-16T08:29:55.022Z,3.20
2023-04-16T08:32:56.968Z,3.08
2023-04-16T08:35:59.391Z,2.35
2023-04-16T08:39:05.557Z,4.20
2023-04-16T08:42:15.922Z,2.22
2023-04-16T08:45:18.543Z,3.03
2023-04-16T08:48:22.170Z,1.85
2023-04-16T08:51:27.488Z,4.32
2023-04-16T08:55:07.301Z,2.97
2023-04-16T08:58:15.503Z,2.30
2023-04-16T09:01:21.529Z,2.58
2023-04-16T09:04:26.706Z,2.88
2023-04-16T09:07:29.359Z,3.88
2023-04-16T09:10:31.803Z,2.92
2023-04-16T09:13:33.719Z,5.45
2023-04-16T09:16:36.134Z,1.92
2023-04-16T09:19:38.010Z,2.30
2023-04-16T09:22:42.608Z,1.92
2023-04-16T09:25:44.461Z,4.85
2023-04-16T09:28:48.962Z,1.90
2023-04-16T09:32:05.738Z,3.28
2023-04-16T09:35:07.855Z,1.65
2023-04-16T09:38:09.693Z,2.97
2023-04-16T09:41:11.528Z,3.20
2023-04-16T09:44:13.312Z,3.08
2023-04-16T09:47:15.151Z,2.08
2023-04-16T09:50:19.015Z,2.53
2023-04-16T09:53:29.123Z,1.92
2023-04-16T09:56:31.409Z,2.72
2023-04-16T09:59:35.899Z,2.03
2023-04-16T10:02:42.279Z,2.83
2023-04-16T10:05:44.760Z,2.87
2023-04-16T10:08:50.875Z,2.38
2023-04-16T10:11:52.668Z,3.38
2023-04-16T10:14:54.521Z,1.98
2023-04-16T10:17:58.068Z,3.92
2023-04-16T10:21:00.462Z,1.52
2023-04-16T10:24:03.128Z,3.97
2023-04-16T10:27:04.997Z,2.28
2023-04-16T10:30:08.935Z,2.97
2023-04-16T10:33:11.039Z,1.60
2023-04-16T10:36:31.097Z,2.97
2023-04-16T10:39:39.208Z,1.92
2023-04-16T10:42:42.201Z,1.60
2023-04-16T10:45:43.972Z,1.63
2023-04-16T10:48:50.334Z,1.27
2023-04-16T10:52:02.248Z,3.65
2023-04-16T10:55:04.401Z,1.13
2023-04-16T10:58:28.943Z,2.60
2023-04-16T11:01:34.135Z,2.50
2023-04-16T11:04:42.401Z,1.88
2023-04-16T11:07:49.579Z,3.95
2023-04-16T11:10:51.902Z,1.10
2023-04-16T11:13:56.386Z,1.45
2023-04-16T11:16:58.188Z,3.97
2023-04-16T11:20:00.245Z,1.30
2023-04-16T11:23:02.105Z,2.97
2023-04-16T11:26:03.902Z,1.58
2023-04-16T11:29:14.236Z,1.70
2023-04-16T11:32:23.666Z,2.10
2023-04-16T11:35:25.558Z,1.50
2023-04-16T11:38:37.357Z,2.03
2023-04-16T11:41:46.260Z,1.40
2023-04-16T11:44:52.337Z,1.08
2023-04-16T11:47:56.929Z,4.05
2023-04-16T11:50:59.104Z,1.35
2023-04-16T11:54:01.120Z,1.20
2023-04-16T11:57:04.702Z,1.35
2023-04-16T12:00:13.995Z,1.15
2023-04-16T12:03:16.438Z,1.13
2023-04-16T12:06:18.408Z,1.00
2023-04-16T12:09:27.418Z,1.17
2023-04-16T12:12:31.620Z,2.13
2023-04-16T12:15:47.557Z,1.35
2023-04-16T12:19:01.362Z,1.10
2023-04-16T12:22:03.191Z,1.02
2023-04-16T12:25:07.951Z,1.85
2023-04-16T12:28:10.336Z,1.13
2023-04-16T12:31:12.694Z,2.95
2023-04-16T12:34:17.912Z,1.13
2023-04-16T12:37:21.213Z,2.83
2023-04-16T12:40:23.019Z,3.45
2023-04-16T12:43:25.273Z,1.50
2023-04-16T12:46:27.079Z,1.50
2023-04-16T12:49:28.873Z,1.45
2023-04-16T12:52:31.078Z,1.83
2023-04-16T12:55:32.991Z,1.40
2023-04-16T12:58:34.894Z,2.22
2023-04-16T13:01:37.311Z,1.13
2023-04-16T13:04:39.193Z,1.25
2023-04-16T13:07:41.525Z,2.53
2023-04-16T13:10:43.253Z,1.60
2023-04-16T13:13:45.431Z,1.15
2023-04-16T13:16:47.343Z,2.45
2023-04-16T13:19:51.846Z,1.42
2023-04-16T13:22:54.211Z,2.17
2023-04-16T13:25:56.178Z,1.88
2023-04-16T13:28:58.137Z,1.42
2023-04-16T13:31:59.902Z,1.30
2023-04-16T13:35:01.855Z,0.70
2023-04-16T13:38:05.077Z,1.00
2023-04-16T13:41:06.814Z,1.40
2023-04-16T13:44:08.652Z,1.23
2023-04-16T13:47:11.388Z,2.97
2023-04-16T13:50:13.234Z,1.45
2023-04-16T13:53:15.336Z,0.95
2023-04-16T13:56:17.218Z,1.10
2023-04-16T13:59:19.082Z,0.80
2023-04-16T14:02:21.870Z,1.27
2023-04-16T14:05:25.808Z,1.33
2023-04-16T14:08:28.792Z,1.27
2023-04-16T14:11:31.451Z,2.97
2023-04-16T14:14:33.298Z,1.73
2023-04-16T14:17:35.534Z,2.38
2023-04-16T14:20:39.805Z,2.22
2023-04-16T14:23:41.596Z,1.13
2023-04-16T14:26:44.280Z,1.42
2023-04-16T14:29:47.050Z,1.40
2023-04-16T14:32:48.925Z,3.17
2023-04-16T14:35:51.492Z,18.92
2023-04-16T14:38:53.218Z,0.85
2023-04-16T14:41:54.998Z,1.13
2023-04-16T14:44:57.057Z,2.97
2023-04-16T14:47:58.833Z,0.85
2023-04-16T14:51:00.728Z,1.38
2023-04-16T14:54:02.584Z,2.47
2023-04-16T14:57:04.411Z,2.65
2023-04-16T15:00:13.404Z,3.97
2023-04-16T15:03:16.261Z,1.40
2023-04-16T15:06:19.034Z,2.50
2023-04-16T15:09:21.156Z,4.40
2023-04-16T15:12:22.966Z,1.58
2023-04-16T15:15:24.650Z,1.73
2023-04-16T15:18:26.471Z,2.42
2023-04-16T15:21:29.251Z,1.67
2023-04-16T15:24:31.163Z,2.22
2023-04-16T15:27:33.107Z,1.63
2023-04-16T15:30:34.920Z,2.10
2023-04-16T15:33:36.746Z,1.45
2023-04-16T15:36:38.932Z,1.63
2023-04-16T15:39:40.859Z,4.68
2023-04-16T15:42:43.388Z,1.33
2023-04-16T15:45:45.241Z,1.10
2023-04-16T15:48:47.082Z,2.22
2023-04-16T15:51:48.855Z,1.40
2023-04-16T15:54:50.901Z,2.03
2023-04-16T15:57:52.828Z,2.42
2023-04-16T16:00:54.639Z,1.77
2023-04-16T16:03:56.542Z,3.30
2023-04-16T16:06:58.535Z,3.75
2023-04-16T16:10:00.306Z,3.17
2023-04-16T16:13:05.496Z,3.00
2023-04-16T16:16:07.742Z,4.35
2023-04-16T16:19:09.841Z,2.80
2023-04-16T16:22:13.043Z,5.03
2023-04-16T16:25:15.104Z,4.65
2023-04-16T16:28:16.961Z,3.40
2023-04-16T16:31:18.800Z,6.28
2023-04-16T16:34:21.546Z,2.42
2023-04-16T16:37:23.516Z,1.58
2023-04-16T16:40:25.549Z,3.50
2023-04-16T16:43:27.334Z,1.92
2023-04-16T16:46:29.618Z,2.60
2023-04-16T16:49:31.440Z,4.85
2023-04-16T16:52:33.248Z,6.07
2023-04-16T16:55:37.045Z,5.18
2023-04-16T16:58:38.810Z,5.22
2023-04-16T17:01:40.609Z,2.95
2023-04-16T17:04:42.465Z,3.80
2023-04-16T17:07:44.438Z,2.70
2023-04-16T17:10:46.486Z,3.30
2023-04-16T17:13:48.180Z,2.83
2023-04-16T17:16:50.178Z,2.88
2023-04-16T17:19:52.033Z,2.88
2023-04-16T17:22:54.072Z,3.58
2023-04-16T17:25:56.032Z,4.00
2023-04-16T17:28:59.366Z,3.70
2023-04-16T17:32:01.485Z,5.07
2023-04-16T17:35:04.462Z,7.03
2023-04-16T17:38:06.440Z,5.22
2023-04-16T17:41:08.208Z,3.83
2023-04-16T17:44:11.696Z,3.00
2023-04-16T17:47:13.716Z,5.70
2023-04-16T17:50:15.553Z,4.72
2023-04-16T17:53:17.268Z,3.55
2023-04-16T17:56:19.197Z,6.25
2023-04-16T17:59:21.923Z,5.38
2023-04-16T18:02:23.957Z,11.60
2023-04-16T18:05:26.219Z,4.13
2023-04-16T18:08:29.124Z,5.18
2023-04-16T18:11:31.269Z,4.25
2023-04-16T18:14:38.711Z,7.13
2023-04-16T18:17:41.234Z,4.68
2023-04-16T18:20:45.613Z,10.52
2023-04-16T18:23:47.380Z,6.00
2023-04-16T18:26:49.192Z,5.47
2023-04-16T18:29:51.513Z,5.40
2023-04-16T18:33:16.438Z,4.00
2023-04-16T18:36:15.117Z,4.22
2023-04-16T18:39:17.589Z,3.70
2023-04-16T18:42:19.500Z,7.57
2023-04-16T18:45:22.099Z,7.82
2023-04-16T18:48:24.004Z,3.75
2023-04-16T18:51:27.907Z,6.13
2023-04-16T18:54:29.735Z,5.10
2023-04-16T18:57:31.699Z,4.03
2023-04-16T19:00:33.542Z,5.53
2023-04-16T19:03:35.319Z,3.28
2023-04-16T19:06:37.164Z,5.93
2023-04-16T19:09:38.905Z,4.45
2023-04-16T19:12:43.299Z,4.95
2023-04-16T19:15:45.465Z,4.88
2023-04-16T19:18:47.327Z,7.97
2023-04-16T19:21:49.713Z,5.93
2023-04-16T19:24:51.520Z,3.67
2023-04-16T19:27:53.331Z,4.63
2023-04-16T19:30:55.468Z,3.47
2023-04-16T19:33:57.308Z,3.92
2023-04-16T19:36:59.120Z,4.75
2023-04-16T19:40:02.229Z,4.57
2023-04-16T19:43:07.197Z,4.70
2023-04-16T19:46:09.102Z,4.10
2023-04-16T19:49:11.075Z,5.60
2023-04-16T19:52:13.113Z,3.30
2023-04-16T19:55:14.863Z,4.38
2023-04-16T19:58:16.825Z,4.22
2023-04-16T20:01:18.572Z,3.53
2023-04-16T20:04:20.541Z,4.55
2023-04-16T20:07:22.362Z,3.60
2023-04-16T20:10:24.691Z,6.47
2023-04-16T20:13:26.421Z,3.55
2023-04-16T20:16:28.155Z,5.80
2023-04-16T20:19:37.948Z,5.28
2023-04-16T20:22:40.272Z,3.60
2023-04-16T20:25:46.314Z,5.38
2023-04-16T20:28:48.024Z,3.95
2023-04-16T20:31:49.866Z,4.40
2023-04-16T20:34:51.827Z,4.47
2023-04-16T20:37:53.580Z,3.65
2023-04-16T20:41:06.610Z,4.22
2023-04-16T20:44:10.469Z,3.83
2023-04-16T20:47:13.167Z,4.43
2023-04-16T20:50:15.056Z,5.47
2023-04-16T20:53:16.812Z,3.45
2023-04-16T20:56:18.643Z,3.20
2023-04-16T20:59:20.428Z,4.15
2023-04-16T21:02:23.716Z,5.32
2023-04-16T21:05:26.767Z,4.13
2023-04-16T21:08:28.683Z,4.82
2023-04-16T21:11:33.383Z,3.60
2023-04-16T21:14:35.177Z,4.20
2023-04-16T21:17:37.005Z,4.05
2023-04-16T21:20:39.488Z,5.53
2023-04-16T21:23:41.327Z,5.88
2023-04-16T21:26:43.110Z,3.85
2023-04-16T21:29:47.557Z,3.45
2023-04-16T21:32:49.756Z,5.00
2023-04-16T21:35:52.518Z,5.78
2023-04-16T21:38:55.026Z,3.90
2023-04-16T21:41:57.741Z,4.03
2023-04-16T21:44:59.614Z,4.60
2023-04-16T21:48:01.465Z,4.43
2023-04-16T21:51:10.171Z,4.32
2023-04-16T21:54:12.334Z,4.72
2023-04-16T21:57:14.148Z,6.80
2023-04-16T22:00:16.130Z,4.28
2023-04-16T22:03:18.764Z,5.93
2023-04-16T22:06:20.920Z,3.45
2023-04-16T22:09:24.890Z,4.57
2023-04-16T22:12:26.652Z,4.22
2023-04-16T22:15:29.182Z,7.10
2023-04-16T22:18:34.002Z,4.05
2023-04-16T22:21:35.897Z,4.00
2023-04-16T22:24:37.618Z,8.10
2023-04-16T22:27:39.415Z,5.35
2023-04-16T22:30:42.036Z,5.95
2023-04-16T22:33:43.724Z,4.53
2023-04-16T22:36:45.460Z,14.20
2023-04-16T22:39:47.246Z,5.43
2023-04-16T22:42:50.356Z,4.65
2023-04-16T22:46:04.650Z,5.50
2023-04-16T22:49:06.745Z,5.15
2023-04-16T22:52:08.850Z,4.90
2023-04-16T22:55:10.870Z,5.22
2023-04-16T22:58:12.641Z,5.18
2023-04-16T23:01:14.525Z,5.85
2023-04-16T23:04:16.484Z,6.00
2023-04-16T23:07:18.525Z,6.22
2023-04-16T23:10:20.297Z,5.88
2023-04-16T23:13:22.209Z,4.40
2023-04-16T23:16:24.794Z,4.72
2023-04-16T23:19:26.847Z,5.20
2023-04-16T23:22:28.590Z,4.70
2023-04-16T23:25:30.576Z,5.53
2023-04-16T23:28:32.407Z,4.65
2023-04-16T23:31:34.186Z,5.90
2023-04-16T23:34:36.216Z,4.10
2023-04-16T23:37:38.020Z,5.90
2023-04-16T23:40:39.773Z,6.82
2023-04-16T23:43:41.760Z,5.85
2023-04-16T23:46:43.675Z,7.35
2023-04-16T23:49:45.620Z,6.90
2023-04-16T23:52:47.384Z,6.43
2023-04-16T23:55:49.061Z,5.28
2023-04-16T23:58:50.849Z,4.88
